sensor_id;sensor_type;location;lat;lon;timestamp;P1;durP1;ratioP1;P2;durP2;ratioP2
8737;SDS011;4405;49.272;8.590;2022-07-22T00:00:47;8.23;;;7.47;;
8737;SDS011;4405;49.272;8.590;2022-07-22T00:03:13;8.83;;;8.13;;
8737;SDS011;4405;49.272;8.590;2022-07-22T00:05:39;8.67;;;7.77;;
8737;SDS011;4405;49.272;8.590;2022-07-22T00:08:06;8.73;;;7.63;;
8737;SDS011;4405;49.272;8.590;2022-07-22T00:10:32;8.37;;;7.77;;
8737;SDS011;4405;49.272;8.590;2022-07-22T00:12:59;10.20;;;7.60;;
8737;SDS011;4405;49.272;8.590;2022-07-22T00:15:26;7.87;;;7.17;;
8737;SDS011;4405;49.272;8.590;2022-07-22T00:17:53;9.43;;;7.20;;
8737;SDS011;4405;49.272;8.590;2022-07-22T00:20:19;8.20;;;7.43;;
8737;SDS011;4405;49.272;8.590;2022-07-22T00:22:45;8.63;;;7.37;;
8737;SDS011;4405;49.272;8.590;2022-07-22T00:25:12;7.90;;;7.30;;
8737;SDS011;4405;49.272;8.590;2022-07-22T00:27:38;8.73;;;7.80;;
8737;SDS011;4405;49.272;8.590;2022-07-22T00:30:05;8.07;;;7.40;;
8737;SDS011;4405;49.272;8.590;2022-07-22T00:32:33;8.10;;;7.30;;
8737;SDS011;4405;49.272;8.590;2022-07-22T00:34:59;7.63;;;7.03;;
8737;SDS011;4405;49.272;8.590;2022-07-22T00:37:26;7.63;;;7.03;;
8737;SDS011;4405;49.272;8.590;2022-07-22T00:39:52;7.70;;;7.10;;
8737;SDS011;4405;49.272;8.590;2022-07-22T00:42:19;7.93;;;7.33;;
8737;SDS011;4405;49.272;8.590;2022-07-22T00:44:45;7.50;;;6.93;;
8737;SDS011;4405;49.272;8.590;2022-07-22T00:47:11;8.73;;;7.97;;
8737;SDS011;4405;49.272;8.590;2022-07-22T00:49:39;8.63;;;7.83;;
8737;SDS011;4405;49.272;8.590;2022-07-22T00:52:06;8.50;;;7.70;;
8737;SDS011;4405;49.272;8.590;2022-07-22T00:54:32;8.30;;;7.60;;
8737;SDS011;4405;49.272;8.590;2022-07-22T00:56:59;8.37;;;7.20;;
8737;SDS011;4405;49.272;8.590;2022-07-22T00:59:25;9.80;;;7.53;;
8737;SDS011;4405;49.272;8.590;2022-07-22T01:01:51;7.80;;;7.10;;
8737;SDS011;4405;49.272;8.590;2022-07-22T01:04:18;9.53;;;7.50;;
8737;SDS011;4405;49.272;8.590;2022-07-22T01:06:46;8.13;;;7.30;;
8737;SDS011;4405;49.272;8.590;2022-07-22T01:09:12;8.57;;;7.73;;
8737;SDS011;4405;49.272;8.590;2022-07-22T01:11:39;8.23;;;7.63;;
8737;SDS011;4405;49.272;8.590;2022-07-22T01:14:06;8.63;;;7.90;;
8737;SDS011;4405;49.272;8.590;2022-07-22T01:16:32;9.03;;;8.00;;
8737;SDS011;4405;49.272;8.590;2022-07-22T01:18:58;8.30;;;7.60;;
8737;SDS011;4405;49.272;8.590;2022-07-22T01:21:26;8.37;;;7.67;;
8737;SDS011;4405;49.272;8.590;2022-07-22T01:23:52;9.37;;;7.10;;
8737;SDS011;4405;49.272;8.590;2022-07-22T01:26:19;7.83;;;7.20;;
8737;SDS011;4405;49.272;8.590;2022-07-22T01:28:45;7.90;;;7.10;;
8737;SDS011;4405;49.272;8.590;2022-07-22T01:31:12;7.60;;;7.00;;
8737;SDS011;4405;49.272;8.590;2022-07-22T01:33:38;7.67;;;6.63;;
8737;SDS011;4405;49.272;8.590;2022-07-22T01:36:05;7.53;;;6.83;;
8737;SDS011;4405;49.272;8.590;2022-07-22T01:38:33;7.17;;;6.50;;
8737;SDS011;4405;49.272;8.590;2022-07-22T01:40:59;8.87;;;7.00;;
8737;SDS011;4405;49.272;8.590;2022-07-22T01:43:26;7.93;;;7.23;;
8737;SDS011;4405;49.272;8.590;2022-07-22T01:45:52;7.33;;;6.73;;
8737;SDS011;4405;49.272;8.590;2022-07-22T01:48:19;7.10;;;6.40;;
8737;SDS011;4405;49.272;8.590;2022-07-22T01:50:46;7.83;;;7.13;;
8737;SDS011;4405;49.272;8.590;2022-07-22T01:53:13;7.10;;;6.50;;
8737;SDS011;4405;49.272;8.590;2022-07-22T01:55:41;7.67;;;6.97;;
8737;SDS011;4405;49.272;8.590;2022-07-22T01:58:07;7.33;;;6.63;;
8737;SDS011;4405;49.272;8.590;2022-07-22T02:00:34;7.20;;;6.60;;
8737;SDS011;4405;49.272;8.590;2022-07-22T02:03:01;7.63;;;7.03;;
8737;SDS011;4405;49.272;8.590;2022-07-22T02:05:27;7.53;;;6.93;;
8737;SDS011;4405;49.272;8.590;2022-07-22T02:07:58;8.27;;;7.50;;
8737;SDS011;4405;49.272;8.590;2022-07-22T02:10:24;8.10;;;7.30;;
8737;SDS011;4405;49.272;8.590;2022-07-22T02:12:52;7.63;;;6.87;;
8737;SDS011;4405;49.272;8.590;2022-07-22T02:15:19;8.47;;;7.57;;
8737;SDS011;4405;49.272;8.590;2022-07-22T02:17:45;8.03;;;7.33;;
8737;SDS011;4405;49.272;8.590;2022-07-22T02:20:11;8.47;;;7.37;;
8737;SDS011;4405;49.272;8.590;2022-07-22T02:22:38;8.20;;;7.50;;
8737;SDS011;4405;49.272;8.590;2022-07-22T02:25:05;8.20;;;7.53;;
8737;SDS011;4405;49.272;8.590;2022-07-22T02:27:31;8.97;;;8.07;;
8737;SDS011;4405;49.272;8.590;2022-07-22T02:29:59;7.93;;;7.10;;
8737;SDS011;4405;49.272;8.590;2022-07-22T02:32:25;8.10;;;7.40;;
8737;SDS011;4405;49.272;8.590;2022-07-22T02:34:52;8.53;;;7.83;;
8737;SDS011;4405;49.272;8.590;2022-07-22T02:37:18;8.47;;;7.80;;
8737;SDS011;4405;49.272;8.590;2022-07-22T02:39:44;9.80;;;7.87;;
8737;SDS011;4405;49.272;8.590;2022-07-22T02:42:11;8.33;;;7.50;;
8737;SDS011;4405;49.272;8.590;2022-07-22T02:44:37;9.40;;;8.60;;
8737;SDS011;4405;49.272;8.590;2022-07-22T02:47:05;9.63;;;8.73;;
8737;SDS011;4405;49.272;8.590;2022-07-22T02:49:31;9.00;;;8.20;;
8737;SDS011;4405;49.272;8.590;2022-07-22T02:51:58;8.93;;;8.13;;
8737;SDS011;4405;49.272;8.590;2022-07-22T02:54:24;9.53;;;8.70;;
8737;SDS011;4405;49.272;8.590;2022-07-22T02:56:50;9.60;;;8.73;;
8737;SDS011;4405;49.272;8.590;2022-07-22T02:59:17;8.73;;;8.03;;
8737;SDS011;4405;49.272;8.590;2022-07-22T03:01:43;9.00;;;8.20;;
8737;SDS011;4405;49.272;8.590;2022-07-22T03:04:11;9.13;;;8.27;;
8737;SDS011;4405;49.272;8.590;2022-07-22T03:06:38;8.40;;;7.60;;
8737;SDS011;4405;49.272;8.590;2022-07-22T03:09:04;9.17;;;8.40;;
8737;SDS011;4405;49.272;8.590;2022-07-22T03:11:31;9.10;;;8.20;;
8737;SDS011;4405;49.272;8.590;2022-07-22T03:13:57;9.00;;;8.20;;
8737;SDS011;4405;49.272;8.590;2022-07-22T03:16:23;9.23;;;8.33;;
8737;SDS011;4405;49.272;8.590;2022-07-22T03:18:50;9.10;;;8.20;;
8737;SDS011;4405;49.272;8.590;2022-07-22T03:21:17;8.03;;;7.23;;
8737;SDS011;4405;49.272;8.590;2022-07-22T03:23:44;9.27;;;8.40;;
8737;SDS011;4405;49.272;8.590;2022-07-22T03:26:10;8.47;;;7.77;;
8737;SDS011;4405;49.272;8.590;2022-07-22T03:28:36;8.63;;;7.93;;
8737;SDS011;4405;49.272;8.590;2022-07-22T03:31:03;9.53;;;8.60;;
8737;SDS011;4405;49.272;8.590;2022-07-22T03:33:29;9.30;;;8.47;;
8737;SDS011;4405;49.272;8.590;2022-07-22T03:35:55;9.53;;;8.70;;
8737;SDS011;4405;49.272;8.590;2022-07-22T03:38:23;9.20;;;8.30;;
8737;SDS011;4405;49.272;8.590;2022-07-22T03:40:50;8.97;;;8.17;;
8737;SDS011;4405;49.272;8.590;2022-07-22T03:43:16;8.97;;;8.27;;
8737;SDS011;4405;49.272;8.590;2022-07-22T03:45:42;8.83;;;8.00;;
8737;SDS011;4405;49.272;8.590;2022-07-22T03:48:10;9.60;;;8.23;;
8737;SDS011;4405;49.272;8.590;2022-07-22T03:50:36;9.17;;;8.07;;
8737;SDS011;4405;49.272;8.590;2022-07-22T03:53:02;10.07;;;8.43;;
8737;SDS011;4405;49.272;8.590;2022-07-22T03:55:30;8.60;;;7.83;;
8737;SDS011;4405;49.272;8.590;2022-07-22T03:57:57;8.90;;;8.00;;
8737;SDS011;4405;49.272;8.590;2022-07-22T04:00:23;8.47;;;7.67;;
8737;SDS011;4405;49.272;8.590;2022-07-22T04:02:49;8.93;;;8.13;;
8737;SDS011;4405;49.272;8.590;2022-07-22T04:05:16;8.87;;;7.73;;
8737;SDS011;4405;49.272;8.590;2022-07-22T04:07:42;9.93;;;7.90;;
8737;SDS011;4405;49.272;8.590;2022-07-22T04:10:09;8.00;;;7.30;;
8737;SDS011;4405;49.272;8.590;2022-07-22T04:12:37;8.47;;;7.60;;
8737;SDS011;4405;49.272;8.590;2022-07-22T04:15:04;8.83;;;7.70;;
8737;SDS011;4405;49.272;8.590;2022-07-22T04:17:32;8.67;;;7.93;;
8737;SDS011;4405;49.272;8.590;2022-07-22T04:19:58;8.40;;;7.50;;
8737;SDS011;4405;49.272;8.590;2022-07-22T04:22:25;8.43;;;7.63;;
8737;SDS011;4405;49.272;8.590;2022-07-22T04:24:52;8.83;;;8.03;;
8737;SDS011;4405;49.272;8.590;2022-07-22T04:27:18;8.77;;;7.87;;
8737;SDS011;4405;49.272;8.590;2022-07-22T04:29:46;8.70;;;7.77;;
8737;SDS011;4405;49.272;8.590;2022-07-22T04:32:12;8.43;;;7.70;;
8737;SDS011;4405;49.272;8.590;2022-07-22T04:34:38;8.67;;;7.80;;
8737;SDS011;4405;49.272;8.590;2022-07-22T04:37:05;8.77;;;8.13;;
8737;SDS011;4405;49.272;8.590;2022-07-22T04:39:31;8.70;;;7.90;;
8737;SDS011;4405;49.272;8.590;2022-07-22T04:41:57;8.50;;;7.70;;
8737;SDS011;4405;49.272;8.590;2022-07-22T04:44:24;15.00;;;8.57;;
8737;SDS011;4405;49.272;8.590;2022-07-22T04:46:51;9.37;;;8.33;;
8737;SDS011;4405;49.272;8.590;2022-07-22T04:49:18;8.60;;;7.80;;
8737;SDS011;4405;49.272;8.590;2022-07-22T04:51:44;8.93;;;8.13;;
8737;SDS011;4405;49.272;8.590;2022-07-22T04:54:11;9.47;;;8.50;;
8737;SDS011;4405;49.272;8.590;2022-07-22T04:56:37;9.40;;;8.33;;
8737;SDS011;4405;49.272;8.590;2022-07-22T04:59:03;9.00;;;8.17;;
8737;SDS011;4405;49.272;8.590;2022-07-22T05:01:30;8.47;;;7.67;;
8737;SDS011;4405;49.272;8.590;2022-07-22T05:03:57;8.97;;;8.17;;
8737;SDS011;4405;49.272;8.590;2022-07-22T05:06:24;9.07;;;8.17;;
8737;SDS011;4405;49.272;8.590;2022-07-22T05:08:50;10.50;;;8.40;;
8737;SDS011;4405;49.272;8.590;2022-07-22T05:11:17;12.17;;;8.63;;
8737;SDS011;4405;49.272;8.590;2022-07-22T05:13:43;10.40;;;8.00;;
8737;SDS011;4405;49.272;8.590;2022-07-22T05:16:10;9.47;;;7.70;;
8737;SDS011;4405;49.272;8.590;2022-07-22T05:18:36;8.40;;;7.50;;
8737;SDS011;4405;49.272;8.590;2022-07-22T05:21:04;8.80;;;8.03;;
8737;SDS011;4405;49.272;8.590;2022-07-22T05:23:31;8.67;;;7.77;;
8737;SDS011;4405;49.272;8.590;2022-07-22T05:25:58;8.87;;;7.97;;
8737;SDS011;4405;49.272;8.590;2022-07-22T05:28:24;9.50;;;7.60;;
8737;SDS011;4405;49.272;8.590;2022-07-22T05:30:50;7.93;;;7.17;;
8737;SDS011;4405;49.272;8.590;2022-07-22T05:33:17;10.87;;;7.77;;
8737;SDS011;4405;49.272;8.590;2022-07-22T05:35:43;7.83;;;7.13;;
8737;SDS011;4405;49.272;8.590;2022-07-22T05:38:11;8.90;;;6.83;;
8737;SDS011;4405;49.272;8.590;2022-07-22T05:40:37;10.07;;;6.70;;
8737;SDS011;4405;49.272;8.590;2022-07-22T05:43:04;9.63;;;7.13;;
8737;SDS011;4405;49.272;8.590;2022-07-22T05:45:30;8.33;;;6.97;;
8737;SDS011;4405;49.272;8.590;2022-07-22T05:47:56;7.37;;;6.77;;
8737;SDS011;4405;49.272;8.590;2022-07-22T05:50:23;8.80;;;6.77;;
8737;SDS011;4405;49.272;8.590;2022-07-22T05:52:49;8.80;;;6.27;;
8737;SDS011;4405;49.272;8.590;2022-07-22T05:55:17;7.73;;;6.43;;
8737;SDS011;4405;49.272;8.590;2022-07-22T05:57:44;6.97;;;6.27;;
8737;SDS011;4405;49.272;8.590;2022-07-22T06:00:10;6.90;;;6.23;;
8737;SDS011;4405;49.272;8.590;2022-07-22T06:02:37;9.63;;;6.47;;
8737;SDS011;4405;49.272;8.590;2022-07-22T06:05:04;7.90;;;6.87;;
8737;SDS011;4405;49.272;8.590;2022-07-22T06:07:30;7.57;;;6.53;;
8737;SDS011;4405;49.272;8.590;2022-07-22T06:09:56;8.37;;;6.23;;
8737;SDS011;4405;49.272;8.590;2022-07-22T06:12:24;6.50;;;5.90;;
8737;SDS011;4405;49.272;8.590;2022-07-22T06:14:51;7.67;;;6.47;;
8737;SDS011;4405;49.272;8.590;2022-07-22T06:17:17;7.73;;;6.00;;
8737;SDS011;4405;49.272;8.590;2022-07-22T06:19:43;8.17;;;6.20;;
8737;SDS011;4405;49.272;8.590;2022-07-22T06:22:10;8.33;;;6.30;;
8737;SDS011;4405;49.272;8.590;2022-07-22T06:24:36;6.90;;;6.30;;
8737;SDS011;4405;49.272;8.590;2022-07-22T06:27:02;6.67;;;6.07;;
8737;SDS011;4405;49.272;8.590;2022-07-22T06:29:30;6.87;;;6.17;;
8737;SDS011;4405;49.272;8.590;2022-07-22T06:31:57;8.10;;;6.43;;
8737;SDS011;4405;49.272;8.590;2022-07-22T06:34:23;6.80;;;5.70;;
8737;SDS011;4405;49.272;8.590;2022-07-22T06:36:49;9.43;;;6.67;;
8737;SDS011;4405;49.272;8.590;2022-07-22T06:39:16;7.13;;;6.50;;
8737;SDS011;4405;49.272;8.590;2022-07-22T06:41:42;7.00;;;6.50;;
8737;SDS011;4405;49.272;8.590;2022-07-22T06:44:09;7.50;;;6.90;;
8737;SDS011;4405;49.272;8.590;2022-07-22T06:46:36;7.70;;;7.00;;
8737;SDS011;4405;49.272;8.590;2022-07-22T06:49:03;8.83;;;7.00;;
8737;SDS011;4405;49.272;8.590;2022-07-22T06:51:29;7.80;;;6.93;;
8737;SDS011;4405;49.272;8.590;2022-07-22T06:53:55;7.57;;;6.27;;
8737;SDS011;4405;49.272;8.590;2022-07-22T06:56:22;7.10;;;6.40;;
8737;SDS011;4405;49.272;8.590;2022-07-22T06:58:48;7.20;;;6.53;;
8737;SDS011;4405;49.272;8.590;2022-07-22T07:01:14;7.50;;;6.70;;
8737;SDS011;4405;49.272;8.590;2022-07-22T07:03:42;8.37;;;7.53;;
8737;SDS011;4405;49.272;8.590;2022-07-22T07:06:09;9.40;;;7.57;;
8737;SDS011;4405;49.272;8.590;2022-07-22T07:08:36;7.70;;;7.10;;
8737;SDS011;4405;49.272;8.590;2022-07-22T07:11:02;7.13;;;6.43;;
8737;SDS011;4405;49.272;8.590;2022-07-22T07:13:29;8.43;;;7.63;;
8737;SDS011;4405;49.272;8.590;2022-07-22T07:15:55;8.03;;;7.03;;
8737;SDS011;4405;49.272;8.590;2022-07-22T07:18:21;9.43;;;7.13;;
8737;SDS011;4405;49.272;8.590;2022-07-22T07:20:49;8.07;;;7.20;;
8737;SDS011;4405;49.272;8.590;2022-07-22T07:23:16;8.07;;;7.40;;
8737;SDS011;4405;49.272;8.590;2022-07-22T07:25:42;8.77;;;7.87;;
8737;SDS011;4405;49.272;8.590;2022-07-22T07:28:08;7.97;;;7.20;;
8737;SDS011;4405;49.272;8.590;2022-07-22T07:30:35;9.03;;;8.23;;
8737;SDS011;4405;49.272;8.590;2022-07-22T07:33:01;9.37;;;7.47;;
8737;SDS011;4405;49.272;8.590;2022-07-22T07:35:28;13.27;;;7.60;;
8737;SDS011;4405;49.272;8.590;2022-07-22T07:37:55;10.57;;;7.63;;
8737;SDS011;4405;49.272;8.590;2022-07-22T07:40:22;8.40;;;7.60;;
8737;SDS011;4405;49.272;8.590;2022-07-22T07:42:48;8.13;;;7.40;;
8737;SDS011;4405;49.272;8.590;2022-07-22T07:45:14;8.30;;;7.57;;
8737;SDS011;4405;49.272;8.590;2022-07-22T07:47:41;8.40;;;7.70;;
8737;SDS011;4405;49.272;8.590;2022-07-22T07:50:08;7.77;;;7.07;;
8737;SDS011;4405;49.272;8.590;2022-07-22T07:52:36;8.83;;;7.10;;
8737;SDS011;4405;49.272;8.590;2022-07-22T07:55:04;8.10;;;7.30;;
8737;SDS011;4405;49.272;8.590;2022-07-22T07:57:32;7.87;;;7.10;;
8737;SDS011;4405;49.272;8.590;2022-07-22T07:59:58;7.70;;;7.07;;
8737;SDS011;4405;49.272;8.590;2022-07-22T08:02:24;8.00;;;7.10;;
8737;SDS011;4405;49.272;8.590;2022-07-22T08:04:51;9.10;;;7.13;;
8737;SDS011;4405;49.272;8.590;2022-07-22T08:07:17;7.53;;;6.87;;
8737;SDS011;4405;49.272;8.590;2022-07-22T08:09:44;7.93;;;6.40;;
8737;SDS011;4405;49.272;8.590;2022-07-22T08:12:11;7.70;;;7.00;;
8737;SDS011;4405;49.272;8.590;2022-07-22T08:14:38;8.20;;;7.40;;
8737;SDS011;4405;49.272;8.590;2022-07-22T08:17:04;7.83;;;7.00;;
8737;SDS011;4405;49.272;8.590;2022-07-22T08:19:31;8.43;;;7.07;;
8737;SDS011;4405;49.272;8.590;2022-07-22T08:21:57;7.57;;;6.80;;
8737;SDS011;4405;49.272;8.590;2022-07-22T08:24:23;7.53;;;6.83;;
8737;SDS011;4405;49.272;8.590;2022-07-22T08:26:50;6.97;;;6.40;;
8737;SDS011;4405;49.272;8.590;2022-07-22T08:29:18;7.50;;;6.90;;
8737;SDS011;4405;49.272;8.590;2022-07-22T08:31:44;7.63;;;6.93;;
8737;SDS011;4405;49.272;8.590;2022-07-22T08:34:10;6.60;;;6.10;;
8737;SDS011;4405;49.272;8.590;2022-07-22T08:36:37;7.67;;;7.07;;
8737;SDS011;4405;49.272;8.590;2022-07-22T08:39:03;7.60;;;6.90;;
8737;SDS011;4405;49.272;8.590;2022-07-22T08:41:32;8.37;;;7.03;;
8737;SDS011;4405;49.272;8.590;2022-07-22T08:43:59;7.27;;;6.67;;
8737;SDS011;4405;49.272;8.590;2022-07-22T08:46:27;8.23;;;7.13;;
8737;SDS011;4405;49.272;8.590;2022-07-22T08:48:54;7.57;;;6.97;;
8737;SDS011;4405;49.272;8.590;2022-07-22T08:51:20;7.13;;;6.63;;
8737;SDS011;4405;49.272;8.590;2022-07-22T08:53:47;7.47;;;6.97;;
8737;SDS011;4405;49.272;8.590;2022-07-22T08:56:13;7.23;;;6.63;;
8737;SDS011;4405;49.272;8.590;2022-07-22T08:58:40;8.67;;;7.77;;
8737;SDS011;4405;49.272;8.590;2022-07-22T09:01:07;7.77;;;7.03;;
8737;SDS011;4405;49.272;8.590;2022-07-22T09:03:43;8.77;;;7.53;;
8737;SDS011;4405;49.272;8.590;2022-07-22T09:06:10;7.47;;;6.93;;
8737;SDS011;4405;49.272;8.590;2022-07-22T09:08:49;7.80;;;6.87;;
8737;SDS011;4405;49.272;8.590;2022-07-22T09:11:16;7.23;;;6.70;;
8737;SDS011;4405;49.272;8.590;2022-07-22T09:13:42;8.33;;;7.53;;
8737;SDS011;4405;49.272;8.590;2022-07-22T09:16:09;7.67;;;7.10;;
8737;SDS011;4405;49.272;8.590;2022-07-22T09:18:45;7.90;;;7.30;;
8737;SDS011;4405;49.272;8.590;2022-07-22T09:21:12;7.73;;;7.17;;
8737;SDS011;4405;49.272;8.590;2022-07-22T09:23:40;8.90;;;7.47;;
8737;SDS011;4405;49.272;8.590;2022-07-22T09:26:06;8.03;;;7.23;;
8737;SDS011;4405;49.272;8.590;2022-07-22T09:28:33;7.63;;;6.90;;
8737;SDS011;4405;49.272;8.590;2022-07-22T09:30:59;7.93;;;7.10;;
8737;SDS011;4405;49.272;8.590;2022-07-22T09:33:26;7.90;;;7.20;;
8737;SDS011;4405;49.272;8.590;2022-07-22T09:36:00;7.53;;;6.70;;
8737;SDS011;4405;49.272;8.590;2022-07-22T09:38:28;7.13;;;6.57;;
8737;SDS011;4405;49.272;8.590;2022-07-22T09:40:56;7.57;;;6.87;;
8737;SDS011;4405;49.272;8.590;2022-07-22T09:43:23;7.60;;;6.97;;
8737;SDS011;4405;49.272;8.590;2022-07-22T09:45:54;8.23;;;7.60;;
8737;SDS011;4405;49.272;8.590;2022-07-22T09:48:22;8.07;;;7.47;;
8737;SDS011;4405;49.272;8.590;2022-07-22T09:50:49;7.80;;;7.10;;
8737;SDS011;4405;49.272;8.590;2022-07-22T09:53:17;9.23;;;6.90;;
8737;SDS011;4405;49.272;8.590;2022-07-22T09:55:43;7.37;;;6.63;;
8737;SDS011;4405;49.272;8.590;2022-07-22T09:58:10;6.83;;;6.23;;
8737;SDS011;4405;49.272;8.590;2022-07-22T10:00:37;9.40;;;7.30;;
8737;SDS011;4405;49.272;8.590;2022-07-22T10:03:04;7.60;;;7.10;;
8737;SDS011;4405;49.272;8.590;2022-07-22T10:05:32;7.17;;;6.57;;
8737;SDS011;4405;49.272;8.590;2022-07-22T10:07:59;7.53;;;6.93;;
8737;SDS011;4405;49.272;8.590;2022-07-22T10:10:28;7.13;;;6.50;;
8737;SDS011;4405;49.272;8.590;2022-07-22T10:12:55;8.10;;;7.40;;
8737;SDS011;4405;49.272;8.590;2022-07-22T10:15:23;7.37;;;6.70;;
8737;SDS011;4405;49.272;8.590;2022-07-22T10:17:51;7.43;;;6.88;;
8737;SDS011;4405;49.272;8.590;2022-07-22T10:20:18;7.47;;;6.78;;
8737;SDS011;4405;49.272;8.590;2022-07-22T10:22:48;7.88;;;7.07;;
8737;SDS011;4405;49.272;8.590;2022-07-22T10:25:19;6.90;;;6.35;;
8737;SDS011;4405;49.272;8.590;2022-07-22T10:27:48;7.30;;;6.80;;
8737;SDS011;4405;49.272;8.590;2022-07-22T10:30:16;7.00;;;6.40;;
8737;SDS011;4405;49.272;8.590;2022-07-22T10:32:42;7.22;;;6.60;;
8737;SDS011;4405;49.272;8.590;2022-07-22T10:35:21;6.85;;;6.00;;
8737;SDS011;4405;49.272;8.590;2022-07-22T10:37:49;7.72;;;7.05;;
8737;SDS011;4405;49.272;8.590;2022-07-22T10:40:17;7.40;;;6.93;;
8737;SDS011;4405;49.272;8.590;2022-07-22T10:45:46;7.60;;;6.90;;
8737;SDS011;4405;49.272;8.590;2022-07-22T10:48:14;7.13;;;6.63;;
8737;SDS011;4405;49.272;8.590;2022-07-22T10:50:41;7.28;;;6.57;;
8737;SDS011;4405;49.272;8.590;2022-07-22T10:53:08;7.18;;;6.47;;
8737;SDS011;4405;49.272;8.590;2022-07-22T10:55:35;8.82;;;6.88;;
8737;SDS011;4405;49.272;8.590;2022-07-22T11:00:43;6.68;;;6.07;;
8737;SDS011;4405;49.272;8.590;2022-07-22T11:03:11;7.55;;;6.88;;
8737;SDS011;4405;49.272;8.590;2022-07-22T11:05:38;7.20;;;6.60;;
8737;SDS011;4405;49.272;8.590;2022-07-22T11:08:07;7.13;;;6.57;;
8737;SDS011;4405;49.272;8.590;2022-07-22T11:10:35;7.70;;;6.97;;
8737;SDS011;4405;49.272;8.590;2022-07-22T11:13:01;6.57;;;6.00;;
8737;SDS011;4405;49.272;8.590;2022-07-22T11:15:27;6.63;;;6.07;;
8737;SDS011;4405;49.272;8.590;2022-07-22T11:17:55;6.32;;;5.78;;
8737;SDS011;4405;49.272;8.590;2022-07-22T11:20:23;6.72;;;6.22;;
8737;SDS011;4405;49.272;8.590;2022-07-22T11:22:50;6.93;;;6.25;;
8737;SDS011;4405;49.272;8.590;2022-07-22T11:25:16;7.15;;;6.60;;
8737;SDS011;4405;49.272;8.590;2022-07-22T11:27:47;6.28;;;5.88;;
8737;SDS011;4405;49.272;8.590;2022-07-22T11:30:14;6.38;;;5.95;;
8737;SDS011;4405;49.272;8.590;2022-07-22T11:32:41;7.10;;;6.13;;
8737;SDS011;4405;49.272;8.590;2022-07-22T11:35:10;6.10;;;5.60;;
8737;SDS011;4405;49.272;8.590;2022-07-22T11:37:38;6.43;;;6.03;;
8737;SDS011;4405;49.272;8.590;2022-07-22T11:40:05;6.82;;;6.20;;
8737;SDS011;4405;49.272;8.590;2022-07-22T11:42:32;7.22;;;6.28;;
8737;SDS011;4405;49.272;8.590;2022-07-22T11:44:59;5.97;;;5.68;;
8737;SDS011;4405;49.272;8.590;2022-07-22T11:47:26;7.72;;;5.82;;
8737;SDS011;4405;49.272;8.590;2022-07-22T11:49:52;7.53;;;6.00;;
8737;SDS011;4405;49.272;8.590;2022-07-22T11:52:19;6.28;;;5.88;;
8737;SDS011;4405;49.272;8.590;2022-07-22T11:54:46;6.75;;;6.13;;
8737;SDS011;4405;49.272;8.590;2022-07-22T11:57:14;6.95;;;6.28;;
8737;SDS011;4405;49.272;8.590;2022-07-22T11:59:40;6.28;;;5.78;;
8737;SDS011;4405;49.272;8.590;2022-07-22T12:02:08;6.63;;;5.68;;
8737;SDS011;4405;49.272;8.590;2022-07-22T12:04:38;6.32;;;5.93;;
8737;SDS011;4405;49.272;8.590;2022-07-22T12:07:04;6.25;;;5.90;;
8737;SDS011;4405;49.272;8.590;2022-07-22T12:09:33;6.80;;;6.00;;
8737;SDS011;4405;49.272;8.590;2022-07-22T12:12:01;5.88;;;5.47;;
8737;SDS011;4405;49.272;8.590;2022-07-22T12:14:27;6.07;;;5.78;;
8737;SDS011;4405;49.272;8.590;2022-07-22T12:16:55;6.03;;;5.63;;
8737;SDS011;4405;49.272;8.590;2022-07-22T12:19:22;5.78;;;5.38;;
8737;SDS011;4405;49.272;8.590;2022-07-22T12:21:52;6.18;;;5.60;;
8737;SDS011;4405;49.272;8.590;2022-07-22T12:24:25;6.55;;;5.88;;
8737;SDS011;4405;49.272;8.590;2022-07-22T12:26:51;6.22;;;5.40;;
8737;SDS011;4405;49.272;8.590;2022-07-22T12:29:20;6.20;;;5.60;;
8737;SDS011;4405;49.272;8.590;2022-07-22T12:31:48;5.93;;;5.53;;
8737;SDS011;4405;49.272;8.590;2022-07-22T12:34:14;6.57;;;6.05;;
8737;SDS011;4405;49.272;8.590;2022-07-22T12:36:45;6.78;;;6.18;;
8737;SDS011;4405;49.272;8.590;2022-07-22T12:39:16;6.10;;;5.50;;
8737;SDS011;4405;49.272;8.590;2022-07-22T12:41:46;6.38;;;5.82;;
8737;SDS011;4405;49.272;8.590;2022-07-22T12:44:17;6.18;;;5.72;;
8737;SDS011;4405;49.272;8.590;2022-07-22T12:46:45;5.78;;;5.38;;
8737;SDS011;4405;49.272;8.590;2022-07-22T12:49:12;5.47;;;5.18;;
8737;SDS011;4405;49.272;8.590;2022-07-22T12:51:39;6.03;;;5.65;;
8737;SDS011;4405;49.272;8.590;2022-07-22T12:54:05;5.53;;;5.22;;
8737;SDS011;4405;49.272;8.590;2022-07-22T12:56:31;5.88;;;5.28;;
8737;SDS011;4405;49.272;8.590;2022-07-22T12:58:59;6.43;;;5.63;;
8737;SDS011;4405;49.272;8.590;2022-07-22T13:01:25;5.68;;;5.18;;
8737;SDS011;4405;49.272;8.590;2022-07-22T13:03:53;5.90;;;5.50;;
8737;SDS011;4405;49.272;8.590;2022-07-22T13:06:19;5.60;;;5.18;;
8737;SDS011;4405;49.272;8.590;2022-07-22T13:08:45;5.70;;;5.18;;
8737;SDS011;4405;49.272;8.590;2022-07-22T13:11:12;5.45;;;5.05;;
8737;SDS011;4405;49.272;8.590;2022-07-22T13:13:38;5.45;;;5.15;;
8737;SDS011;4405;49.272;8.590;2022-07-22T13:16:07;5.40;;;5.00;;
8737;SDS011;4405;49.272;8.590;2022-07-22T13:18:33;5.43;;;5.13;;
8737;SDS011;4405;49.272;8.590;2022-07-22T13:21:01;5.63;;;5.20;;
8737;SDS011;4405;49.272;8.590;2022-07-22T13:23:28;5.30;;;4.88;;
8737;SDS011;4405;49.272;8.590;2022-07-22T13:25:54;6.35;;;5.95;;
8737;SDS011;4405;49.272;8.590;2022-07-22T13:28:21;5.80;;;5.50;;
8737;SDS011;4405;49.272;8.590;2022-07-22T13:30:47;5.85;;;5.45;;
8737;SDS011;4405;49.272;8.590;2022-07-22T13:33:14;5.82;;;5.40;;
8737;SDS011;4405;49.272;8.590;2022-07-22T13:35:41;6.10;;;5.55;;
8737;SDS011;4405;49.272;8.590;2022-07-22T13:38:09;5.95;;;5.65;;
8737;SDS011;4405;49.272;8.590;2022-07-22T13:40:35;5.90;;;5.40;;
8737;SDS011;4405;49.272;8.590;2022-07-22T13:43:02;5.80;;;5.40;;
8737;SDS011;4405;49.272;8.590;2022-07-22T13:45:28;6.65;;;6.15;;
8737;SDS011;4405;49.272;8.590;2022-07-22T13:47:54;5.97;;;5.55;;
8737;SDS011;4405;49.272;8.590;2022-07-22T13:50:21;5.57;;;5.28;;
8737;SDS011;4405;49.272;8.590;2022-07-22T13:52:47;7.40;;;5.80;;
8737;SDS011;4405;49.272;8.590;2022-07-22T13:55:15;5.50;;;5.20;;
8737;SDS011;4405;49.272;8.590;2022-07-22T13:57:41;7.00;;;5.22;;
8737;SDS011;4405;49.272;8.590;2022-07-22T14:00:08;5.78;;;5.32;;
8737;SDS011;4405;49.272;8.590;2022-07-22T14:02:35;6.22;;;5.45;;
8737;SDS011;4405;49.272;8.590;2022-07-22T14:05:03;6.95;;;5.82;;
8737;SDS011;4405;49.272;8.590;2022-07-22T14:07:29;6.30;;;5.80;;
8737;SDS011;4405;49.272;8.590;2022-07-22T14:09:55;6.00;;;5.50;;
8737;SDS011;4405;49.272;8.590;2022-07-22T14:12:23;5.75;;;5.40;;
8737;SDS011;4405;49.272;8.590;2022-07-22T14:14:50;6.20;;;5.68;;
8737;SDS011;4405;49.272;8.590;2022-07-22T14:17:16;8.15;;;5.78;;
8737;SDS011;4405;49.272;8.590;2022-07-22T14:19:42;5.70;;;5.32;;
8737;SDS011;4405;49.272;8.590;2022-07-22T14:22:09;5.93;;;5.53;;
8737;SDS011;4405;49.272;8.590;2022-07-22T14:24:35;6.15;;;5.78;;
8737;SDS011;4405;49.272;8.590;2022-07-22T14:27:01;6.57;;;5.90;;
8737;SDS011;4405;49.272;8.590;2022-07-22T14:29:29;6.22;;;5.65;;
8737;SDS011;4405;49.272;8.590;2022-07-22T14:31:56;5.63;;;5.20;;
8737;SDS011;4405;49.272;8.590;2022-07-22T14:34:22;6.50;;;5.93;;
8737;SDS011;4405;49.272;8.590;2022-07-22T14:36:48;6.18;;;5.57;;
8737;SDS011;4405;49.272;8.590;2022-07-22T14:39:15;8.85;;;5.55;;
8737;SDS011;4405;49.272;8.590;2022-07-22T14:41:41;5.85;;;5.47;;
8737;SDS011;4405;49.272;8.590;2022-07-22T14:44:10;5.65;;;5.35;;
8737;SDS011;4405;49.272;8.590;2022-07-22T14:46:38;6.50;;;5.90;;
8737;SDS011;4405;49.272;8.590;2022-07-22T14:49:05;6.60;;;5.97;;
8737;SDS011;4405;49.272;8.590;2022-07-22T14:51:31;5.95;;;5.43;;
8737;SDS011;4405;49.272;8.590;2022-07-22T14:53:58;5.63;;;5.30;;
8737;SDS011;4405;49.272;8.590;2022-07-22T14:56:24;5.55;;;5.15;;
8737;SDS011;4405;49.272;8.590;2022-07-22T14:58:51;6.15;;;5.68;;
8737;SDS011;4405;49.272;8.590;2022-07-22T15:01:17;5.75;;;5.35;;
8737;SDS011;4405;49.272;8.590;2022-07-22T15:03:45;6.70;;;5.25;;
8737;SDS011;4405;49.272;8.590;2022-07-22T15:06:11;5.60;;;5.10;;
8737;SDS011;4405;49.272;8.590;2022-07-22T15:08:38;6.30;;;5.70;;
8737;SDS011;4405;49.272;8.590;2022-07-22T15:11:04;6.05;;;5.40;;
8737;SDS011;4405;49.272;8.590;2022-07-22T15:13:30;5.65;;;5.25;;
8737;SDS011;4405;49.272;8.590;2022-07-22T15:15:57;8.10;;;5.72;;
8737;SDS011;4405;49.272;8.590;2022-07-22T15:18:24;6.30;;;5.80;;